createdAt,value
2018-05-23T00:02:20.582Z,36.77
2018-05-23T00:04:48.130Z,35.77
2018-05-23T00:07:15.830Z,37.27
2018-05-23T00:09:43.845Z,38.67
2018-05-23T00:12:11.419Z,38.00
2018-05-23T00:14:38.976Z,38.30
2018-05-23T00:17:06.534Z,37.10
2018-05-23T00:19:34.045Z,35.37
2018-05-23T00:22:01.593Z,31.23
2018-05-23T00:24:29.151Z,29.07
2018-05-23T00:26:56.752Z,29.17
2018-05-23T00:29:24.516Z,28.70
2018-05-23T00:31:52.170Z,28.63
2018-05-23T00:34:19.740Z,34.17
2018-05-23T00:36:47.292Z,34.30
2018-05-23T00:39:15.657Z,32.60
2018-05-23T00:41:43.394Z,30.40
2018-05-23T00:44:11.022Z,31.90
2018-05-23T00:46:39.363Z,32.70
2018-05-23T00:49:06.937Z,30.97
2018-05-23T00:51:34.811Z,30.50
2018-05-23T00:54:02.666Z,32.13
2018-05-23T00:56:30.348Z,33.90
2018-05-23T00:58:58.271Z,36.50
2018-05-23T01:01:25.810Z,36.70
2018-05-23T01:03:53.365Z,36.53
2018-05-23T01:06:20.919Z,35.53
2018-05-23T01:08:48.478Z,40.93
2018-05-23T01:11:16.026Z,42.10
2018-05-23T01:13:43.637Z,40.30
2018-05-23T01:16:11.336Z,41.57
2018-05-23T01:18:39.082Z,40.53
2018-05-23T01:21:06.603Z,40.43
2018-05-23T01:23:34.177Z,39.23
2018-05-23T01:26:03.847Z,42.00
2018-05-23T01:28:31.453Z,42.70
2018-05-23T01:30:59.011Z,40.83
2018-05-23T01:33:26.594Z,40.90
2018-05-23T01:35:55.247Z,41.50
2018-05-23T01:38:22.944Z,41.63
2018-05-23T01:40:51.447Z,40.73
2018-05-23T01:43:19.498Z,40.10
2018-05-23T01:45:47.038Z,39.17
2018-05-23T01:48:14.574Z,40.67
2018-05-23T01:50:49.142Z,41.67
2018-05-23T01:53:16.761Z,41.30
2018-05-23T01:55:44.334Z,41.17
2018-05-23T01:58:11.939Z,40.70
2018-05-23T02:00:39.516Z,39.20
2018-05-23T02:03:07.148Z,40.90
2018-05-23T02:05:34.704Z,42.30
2018-05-23T02:08:02.276Z,42.77
2018-05-23T02:10:29.807Z,44.40
2018-05-23T02:12:57.407Z,41.27
2018-05-23T02:15:24.996Z,41.93
2018-05-23T02:17:52.517Z,44.53
2018-05-23T02:20:20.123Z,45.93
2018-05-23T02:22:47.689Z,43.90
2018-05-23T02:25:15.223Z,45.13
2018-05-23T02:27:42.765Z,45.83
2018-05-23T02:30:10.299Z,45.70
2018-05-23T02:32:37.939Z,44.23
2018-05-23T02:35:05.555Z,43.73
2018-05-23T02:37:33.720Z,44.13
2018-05-23T02:40:01.246Z,45.40
2018-05-23T02:42:28.821Z,44.97
2018-05-23T02:44:56.413Z,44.90
2018-05-23T02:47:23.987Z,45.70
2018-05-23T02:49:52.497Z,46.30
2018-05-23T02:52:20.357Z,43.80
2018-05-23T02:54:47.984Z,44.93
2018-05-23T02:57:15.588Z,44.00
2018-05-23T02:59:43.203Z,44.07
2018-05-23T03:02:10.716Z,44.80
2018-05-23T03:04:38.263Z,43.57
2018-05-23T03:07:05.822Z,43.80
2018-05-23T03:09:33.356Z,44.37
2018-05-23T03:12:00.889Z,43.60
2018-05-23T03:14:28.524Z,40.57
2018-05-23T03:16:56.077Z,38.70
2018-05-23T03:19:23.759Z,39.73
2018-05-23T03:21:51.740Z,38.20
2018-05-23T03:24:19.356Z,38.23
2018-05-23T03:26:46.993Z,34.83
2018-05-23T03:29:14.453Z,36.33
2018-05-23T03:31:42.089Z,35.27
2018-05-23T03:34:09.624Z,34.27
2018-05-23T03:36:37.192Z,36.10
2018-05-23T03:39:06.630Z,34.97
2018-05-23T03:41:34.241Z,35.60
2018-05-23T03:44:01.836Z,36.13
2018-05-23T03:46:29.418Z,36.00
2018-05-23T03:48:56.974Z,36.07
2018-05-23T03:51:24.506Z,34.10
2018-05-23T03:53:52.016Z,33.83
2018-05-23T03:56:19.562Z,38.77
2018-05-23T03:58:47.107Z,39.80
2018-05-23T04:01:26.529Z,41.53
2018-05-23T04:04:05.966Z,40.13
2018-05-23T04:06:45.202Z,40.43
2018-05-23T04:09:12.716Z,41.47
2018-05-23T04:11:40.247Z,42.43
2018-05-23T04:14:07.787Z,40.97
2018-05-23T04:16:35.320Z,42.27
2018-05-23T04:19:02.830Z,42.63
2018-05-23T04:21:30.363Z,41.40
2018-05-23T04:23:57.901Z,39.60
2018-05-23T04:26:25.514Z,42.03
2018-05-23T04:28:53.064Z,44.13
2018-05-23T04:31:20.608Z,41.90
2018-05-23T04:33:48.240Z,40.27
2018-05-23T04:36:16.707Z,41.00
2018-05-23T04:38:44.338Z,36.93
2018-05-23T04:41:11.878Z,36.73
2018-05-23T04:43:39.392Z,35.70
2018-05-23T04:46:06.935Z,38.90
2018-05-23T04:48:34.679Z,38.73
2018-05-23T04:51:02.376Z,40.23
2018-05-23T04:53:29.926Z,39.03
2018-05-23T04:55:57.587Z,38.73
2018-05-23T04:58:25.126Z,39.80
2018-05-23T05:00:52.650Z,41.07
2018-05-23T05:03:20.973Z,40.90
2018-05-23T05:05:48.538Z,39.37
2018-05-23T05:08:17.311Z,39.47
2018-05-23T05:10:45.071Z,39.47
2018-05-23T05:13:12.672Z,38.60
2018-05-23T05:15:40.182Z,39.93
2018-05-23T05:18:07.719Z,39.20
2018-05-23T05:20:35.242Z,40.37
2018-05-23T05:23:05.139Z,39.23
2018-05-23T05:25:32.721Z,40.77
2018-05-23T05:28:00.251Z,40.40
2018-05-23T05:30:28.240Z,37.23
2018-05-23T05:32:55.806Z,39.40
2018-05-23T05:35:23.320Z,39.10
2018-05-23T05:46:30.576Z,39.53
2018-05-23T05:48:58.074Z,38.50
2018-05-23T05:51:25.558Z,38.67
2018-05-23T05:53:53.088Z,38.13
2018-05-23T05:56:20.573Z,36.93
2018-05-23T05:58:48.070Z,36.57
2018-05-23T06:01:16.462Z,37.53
2018-05-23T06:03:43.950Z,37.37
2018-05-23T06:06:11.432Z,36.97
2018-05-23T06:08:38.920Z,36.03
2018-05-23T06:11:06.401Z,35.27
2018-05-23T06:13:34.450Z,36.07
2018-05-23T06:16:01.931Z,36.47
2018-05-23T06:18:29.443Z,34.93
2018-05-23T06:20:56.919Z,36.03
2018-05-23T06:23:24.406Z,35.00
2018-05-23T06:25:51.878Z,35.60
2018-05-23T06:28:19.374Z,35.13
2018-05-23T06:30:46.854Z,34.67
2018-05-23T06:33:14.337Z,35.20
2018-05-23T06:35:41.810Z,35.73
2018-05-23T06:38:09.297Z,35.83
2018-05-23T06:40:36.758Z,35.33
2018-05-23T06:43:04.245Z,35.83
2018-05-23T06:45:31.722Z,40.30
2018-05-23T06:47:59.223Z,38.33
2018-05-23T06:50:26.690Z,39.03
2018-05-23T06:52:54.181Z,40.77
2018-05-23T06:55:21.646Z,43.53
2018-05-23T06:57:49.133Z,39.90
2018-05-23T07:00:16.612Z,40.63
2018-05-23T07:02:44.105Z,42.00
2018-05-23T07:05:11.583Z,43.03
2018-05-23T07:07:39.086Z,41.43
2018-05-23T07:10:06.558Z,41.00
2018-05-23T07:12:34.821Z,43.60
2018-05-23T07:15:02.311Z,40.50
2018-05-23T07:17:29.804Z,42.17
2018-05-23T07:19:57.298Z,43.23
2018-05-23T07:22:24.827Z,44.13
2018-05-23T07:24:52.290Z,40.33
2018-05-23T07:27:19.769Z,42.53
2018-05-23T07:29:47.254Z,45.57
2018-05-23T07:32:14.727Z,44.27
2018-05-23T07:34:42.218Z,46.17
2018-05-23T07:37:09.705Z,47.20
2018-05-23T07:39:37.189Z,49.63
2018-05-23T07:42:04.662Z,48.30
2018-05-23T07:44:32.155Z,48.37
2018-05-23T07:46:59.629Z,47.40
2018-05-23T07:49:27.123Z,48.27
2018-05-23T07:51:54.601Z,49.40
2018-05-23T07:54:22.089Z,48.67
2018-05-23T07:56:49.561Z,48.17
2018-05-23T07:59:17.050Z,48.23
2018-05-23T08:01:44.526Z,45.10
2018-05-23T08:04:12.014Z,45.43
2018-05-23T08:06:39.488Z,46.37
2018-05-23T08:09:06.982Z,47.27
2018-05-23T08:11:34.452Z,46.90
2018-05-23T08:14:01.954Z,44.93
2018-05-23T08:16:29.443Z,45.00
2018-05-23T08:18:56.934Z,44.57
2018-05-23T08:21:24.397Z,45.23
2018-05-23T08:23:51.886Z,44.03
2018-05-23T08:26:19.350Z,41.87
2018-05-23T08:28:46.845Z,40.30
2018-05-23T08:31:14.313Z,41.47
2018-05-23T08:33:41.792Z,41.83
2018-05-23T08:36:09.294Z,43.37
2018-05-23T08:38:36.757Z,40.70
2018-05-23T08:41:04.271Z,38.80
2018-05-23T08:43:31.750Z,39.63
2018-05-23T08:45:59.334Z,35.53
2018-05-23T08:48:26.734Z,36.17
2018-05-23T08:50:54.257Z,34.43
2018-05-23T08:53:21.732Z,35.77
2018-05-23T08:55:49.231Z,36.07
2018-05-23T08:58:16.697Z,33.47
2018-05-23T09:00:44.185Z,34.43
2018-05-23T09:03:11.658Z,34.93
2018-05-23T09:05:39.162Z,35.00
2018-05-23T09:08:06.654Z,36.70
2018-05-23T09:10:34.142Z,35.73
2018-05-23T09:13:01.628Z,34.40
2018-05-23T09:15:29.110Z,34.77
2018-05-23T09:17:56.587Z,35.43
2018-05-23T09:20:24.073Z,33.40
2018-05-23T09:22:51.550Z,31.60
2018-05-23T09:25:19.059Z,29.57
2018-05-23T09:27:46.518Z,30.80
2018-05-23T09:30:14.007Z,28.70
2018-05-23T09:32:41.482Z,29.83
2018-05-23T09:35:08.978Z,29.50
2018-05-23T09:37:36.442Z,31.83
2018-05-23T09:40:04.541Z,30.43
2018-05-23T09:42:32.011Z,29.63
2018-05-23T09:44:59.508Z,31.87
2018-05-23T09:47:26.993Z,31.83
2018-05-23T09:49:54.477Z,31.70
2018-05-23T09:52:21.942Z,29.47
2018-05-23T09:54:49.427Z,28.70
2018-05-23T09:57:16.898Z,28.10
2018-05-23T09:59:44.372Z,29.03
2018-05-23T10:02:11.870Z,26.53
2018-05-23T10:04:39.346Z,18.87
2018-05-23T10:07:06.846Z,17.10
2018-05-23T10:09:34.314Z,17.00
2018-05-23T10:12:01.811Z,16.30
2018-05-23T10:14:29.278Z,10.53
2018-05-23T10:16:56.774Z,10.97
2018-05-23T10:19:24.256Z,10.67
2018-05-23T10:21:51.745Z,12.57
2018-05-23T10:24:19.213Z,14.63
2018-05-23T10:26:46.702Z,14.60
2018-05-23T10:29:14.177Z,14.63
2018-05-23T10:31:41.667Z,16.00
2018-05-23T10:34:09.134Z,16.93
2018-05-23T10:36:36.625Z,15.73
2018-05-23T10:39:04.110Z,15.90
2018-05-23T10:41:31.618Z,14.10
2018-05-23T10:43:59.095Z,13.10
2018-05-23T10:46:26.587Z,11.37
2018-05-23T10:48:54.059Z,9.47
2018-05-23T10:51:21.550Z,8.20
2018-05-23T10:53:49.011Z,7.80
2018-05-23T10:56:16.518Z,7.60
2018-05-23T10:58:43.983Z,7.77
2018-05-23T11:01:11.522Z,6.70
2018-05-23T11:03:39.058Z,6.93
2018-05-23T11:06:06.596Z,6.43
2018-05-23T11:08:34.073Z,7.10
2018-05-23T11:11:01.574Z,6.80
2018-05-23T11:13:29.088Z,7.10
2018-05-23T11:15:56.609Z,7.70
2018-05-23T11:18:24.127Z,7.37
2018-05-23T11:20:51.610Z,7.73
2018-05-23T11:23:19.175Z,8.20
2018-05-23T11:25:46.591Z,8.47
2018-05-23T11:28:14.078Z,7.70
2018-05-23T11:30:41.547Z,8.23
2018-05-23T11:33:09.038Z,7.50
2018-05-23T11:35:36.503Z,8.20
2018-05-23T11:38:04.007Z,8.50
2018-05-23T11:40:31.490Z,9.10
2018-05-23T11:42:58.986Z,10.47
2018-05-23T11:45:26.461Z,8.47
2018-05-23T11:47:53.938Z,7.93
2018-05-23T11:50:21.451Z,6.73
2018-05-23T11:52:48.949Z,6.10
2018-05-23T11:55:16.407Z,5.90
2018-05-23T11:57:43.898Z,5.40
2018-05-23T12:00:11.401Z,5.70
2018-05-23T12:02:38.873Z,5.93
2018-05-23T12:05:06.337Z,5.10
2018-05-23T12:07:33.843Z,4.63
2018-05-23T12:10:01.310Z,4.93
2018-05-23T12:12:28.793Z,4.10
2018-05-23T12:14:56.278Z,3.63
2018-05-23T12:17:23.762Z,4.27
2018-05-23T12:19:51.233Z,4.00
2018-05-23T12:22:18.729Z,3.90
2018-05-23T13:46:43.229Z,5.33
2018-05-23T13:49:10.723Z,5.73
2018-05-23T13:51:38.190Z,5.30
2018-05-23T13:54:05.684Z,5.80
2018-05-23T13:56:33.168Z,4.93
2018-05-23T13:59:00.682Z,5.07
2018-05-23T14:01:28.151Z,4.80
2018-05-23T14:03:55.634Z,5.40
2018-05-23T14:06:25.099Z,5.47
2018-05-23T14:08:52.590Z,5.45
2018-05-23T14:11:21.077Z,5.22
